createdAt,value
2019-04-29T00:00:09.157Z,99.90
2019-04-29T00:02:39.856Z,99.90
2019-04-29T00:05:11.035Z,99.90
2019-04-29T00:07:41.782Z,99.90
2019-04-29T00:10:16.472Z,99.90
2019-04-29T00:12:47.213Z,99.90
2019-04-29T00:15:35.783Z,99.90
2019-04-29T00:18:11.682Z,99.90
2019-04-29T00:20:46.178Z,99.90
2019-04-29T00:23:16.944Z,99.90
2019-04-29T00:25:47.801Z,99.90
2019-04-29T00:28:18.537Z,99.90
2019-04-29T00:30:49.314Z,99.90
2019-04-29T00:33:20.090Z,99.90
2019-04-29T00:35:50.853Z,99.90
2019-04-29T00:38:45.821Z,99.90
2019-04-29T00:41:34.359Z,99.90
2019-04-29T00:44:08.077Z,99.90
2019-04-29T00:46:38.822Z,99.90
2019-04-29T00:49:09.619Z,99.90
2019-04-29T00:51:40.357Z,99.90
2019-04-29T00:54:20.800Z,99.90
2019-04-29T00:56:51.522Z,99.90
2019-04-29T00:59:22.306Z,99.90
2019-04-29T01:01:53.286Z,99.90
2019-04-29T01:04:24.069Z,99.90
2019-04-29T01:06:54.795Z,99.90
2019-04-29T01:09:27.092Z,99.90
2019-04-29T01:11:57.827Z,99.90
2019-04-29T01:14:28.544Z,99.90
2019-04-29T01:16:59.331Z,99.90
2019-04-29T01:19:30.087Z,99.90
2019-04-29T01:22:00.864Z,99.90
2019-04-29T01:24:31.620Z,99.90
2019-04-29T01:27:21.312Z,99.90
2019-04-29T01:29:52.067Z,99.90
2019-04-29T01:32:22.953Z,99.90
2019-04-29T01:34:55.220Z,99.90
2019-04-29T01:37:38.178Z,99.90
2019-04-29T01:40:37.212Z,99.90
2019-04-29T01:43:07.979Z,99.90
2019-04-29T01:45:38.755Z,99.90
2019-04-29T01:48:09.531Z,99.90
2019-04-29T01:50:40.307Z,99.90
2019-04-29T01:53:11.098Z,99.90
2019-04-29T01:55:41.910Z,99.90
2019-04-29T01:58:12.656Z,99.90
2019-04-29T02:00:43.444Z,99.90
2019-04-29T02:03:14.219Z,99.90
2019-04-29T02:05:44.995Z,99.90
2019-04-29T02:08:15.752Z,99.90
2019-04-29T02:10:46.538Z,99.90
2019-04-29T02:13:17.297Z,99.90
2019-04-29T02:15:48.053Z,99.90
2019-04-29T02:18:18.793Z,99.90
2019-04-29T02:20:49.633Z,99.90
2019-04-29T02:23:35.033Z,99.90
2019-04-29T02:26:06.220Z,99.90
2019-04-29T02:28:36.966Z,99.90
2019-04-29T02:31:25.514Z,99.90
2019-04-29T02:33:56.244Z,99.90
2019-04-29T02:36:29.970Z,99.90
2019-04-29T02:39:08.451Z,99.90
2019-04-29T02:42:01.671Z,99.90
2019-04-29T02:44:32.421Z,99.90
2019-04-29T02:47:03.215Z,99.90
2019-04-29T02:49:33.991Z,99.90
2019-04-29T02:52:04.789Z,99.90
2019-04-29T02:54:35.531Z,99.90
2019-04-29T02:57:25.263Z,99.90
2019-04-29T03:00:00.650Z,99.90
2019-04-29T03:02:46.410Z,99.90
2019-04-29T03:05:28.519Z,99.90
2019-04-29T03:07:59.313Z,99.90
2019-04-29T03:10:30.071Z,99.90
2019-04-29T03:13:00.829Z,99.90
2019-04-29T03:15:34.184Z,99.90
2019-04-29T03:18:04.962Z,99.90
2019-04-29T03:20:56.584Z,99.90
2019-04-29T03:23:27.158Z,99.90
2019-04-29T03:25:57.935Z,99.90
2019-04-29T03:28:28.712Z,99.90
2019-04-29T03:30:59.479Z,99.90
2019-04-29T03:33:30.432Z,99.90
2019-04-29T03:36:01.422Z,99.90
2019-04-29T03:38:32.188Z,99.90
2019-04-29T03:41:02.913Z,99.90
2019-04-29T03:43:33.670Z,99.90
2019-04-29T03:46:04.567Z,99.90
2019-04-29T03:48:35.326Z,99.90
2019-04-29T03:51:06.130Z,99.90
2019-04-29T03:53:36.928Z,99.90
2019-04-29T03:56:07.691Z,99.90
2019-04-29T03:58:38.498Z,99.90
2019-04-29T04:01:20.910Z,99.90
2019-04-29T04:03:58.834Z,99.90
2019-04-29T04:06:46.529Z,99.90
2019-04-29T04:09:22.633Z,99.90
2019-04-29T04:11:53.396Z,99.90
2019-04-29T04:14:24.226Z,99.90
2019-04-29T04:17:14.145Z,99.90
2019-04-29T04:19:45.233Z,99.90
2019-04-29T04:22:16.040Z,99.90
2019-04-29T04:24:46.825Z,99.90
2019-04-29T04:27:17.644Z,99.90
2019-04-29T04:29:48.507Z,99.90
2019-04-29T04:32:19.258Z,99.90
2019-04-29T04:34:50.077Z,99.90
2019-04-29T04:37:20.861Z,99.90
2019-04-29T04:39:51.675Z,99.90
2019-04-29T04:42:22.428Z,99.90
2019-04-29T04:44:53.226Z,99.90
2019-04-29T04:47:24.032Z,99.90
2019-04-29T04:49:54.828Z,99.90
2019-04-29T04:52:25.574Z,99.90
2019-04-29T04:54:56.350Z,99.90
2019-04-29T04:57:27.097Z,99.90
2019-04-29T04:59:57.873Z,99.90
2019-04-29T05:02:28.669Z,99.90
2019-04-29T05:04:59.435Z,99.90
2019-04-29T05:07:30.201Z,99.90
2019-04-29T05:10:00.999Z,99.90
2019-04-29T05:12:31.743Z,99.90
2019-04-29T05:15:02.555Z,99.90
2019-04-29T05:17:33.387Z,99.90
2019-04-29T05:20:04.413Z,99.90
2019-04-29T05:22:35.179Z,99.90
2019-04-29T05:25:06.188Z,99.90
2019-04-29T05:27:36.872Z,99.90
2019-04-29T05:30:07.909Z,99.90
2019-04-29T05:32:38.759Z,99.90
2019-04-29T05:35:12.611Z,99.90
2019-04-29T05:37:56.856Z,99.90
2019-04-29T05:40:37.842Z,99.90
2019-04-29T05:43:10.497Z,99.90
2019-04-29T05:45:48.385Z,99.90
2019-04-29T05:48:19.422Z,96.40
2019-04-29T05:51:02.181Z,95.80
2019-04-29T05:53:42.809Z,95.30
2019-04-29T05:56:13.576Z,93.90
2019-04-29T05:58:44.332Z,90.00
2019-04-29T06:01:19.729Z,90.50
2019-04-29T06:03:50.469Z,91.30
2019-04-29T06:06:21.343Z,91.50
2019-04-29T06:08:52.098Z,91.20
2019-04-29T06:11:23.406Z,94.30
2019-04-29T06:13:54.370Z,95.60
2019-04-29T06:16:25.117Z,97.10
2019-04-29T06:19:00.218Z,97.90
2019-04-29T06:21:28.370Z,99.90
2019-04-29T06:24:03.707Z,99.90
2019-04-29T06:26:31.584Z,99.90
2019-04-29T06:29:05.546Z,99.90
2019-04-29T06:31:34.695Z,99.90
2019-04-29T06:34:06.538Z,99.70
2019-04-29T06:36:37.510Z,99.00
2019-04-29T06:39:08.386Z,96.00
2019-04-29T06:41:40.485Z,95.60
2019-04-29T06:44:16.079Z,94.40
2019-04-29T06:46:44.016Z,97.30
2019-04-29T06:49:14.772Z,98.70
2019-04-29T06:51:45.528Z,97.00
2019-04-29T06:54:16.355Z,96.20
2019-04-29T06:56:47.150Z,95.90
2019-04-29T06:59:17.877Z,94.20
2019-04-29T07:01:48.763Z,96.00
2019-04-29T07:04:19.529Z,96.20
2019-04-29T07:06:57.278Z,94.40
2019-04-29T07:09:22.702Z,92.30
2019-04-29T07:11:53.478Z,90.60
2019-04-29T07:14:24.244Z,93.30
2019-04-29T07:17:00.696Z,93.70
2019-04-29T07:19:29.008Z,93.10
2019-04-29T07:21:59.774Z,91.70
2019-04-29T07:24:30.497Z,87.90
2019-04-29T07:27:02.692Z,87.10
2019-04-29T07:29:33.633Z,90.30
2019-04-29T07:32:04.731Z,89.40
2019-04-29T07:34:39.570Z,86.10
2019-04-29T07:37:09.403Z,88.30
2019-04-29T07:39:40.061Z,89.80
2019-04-29T07:42:10.810Z,87.80
2019-04-29T07:45:03.558Z,88.90
2019-04-29T07:47:35.075Z,89.20
2019-04-29T07:50:06.360Z,88.70
2019-04-29T07:52:37.149Z,89.30
2019-04-29T07:55:08.309Z,90.60
2019-04-29T07:57:39.082Z,81.20
2019-04-29T08:00:12.869Z,87.00
2019-04-29T08:02:42.883Z,86.40
2019-04-29T08:05:13.799Z,86.80
2019-04-29T08:07:44.835Z,83.10
2019-04-29T08:10:23.351Z,88.80
2019-04-29T08:12:49.279Z,83.40
2019-04-29T08:15:20.155Z,84.70
2019-04-29T08:17:52.680Z,85.80
2019-04-29T08:20:23.348Z,82.40
2019-04-29T08:22:54.104Z,84.50
2019-04-29T08:25:25.994Z,87.80
2019-04-29T08:27:57.418Z,86.00
2019-04-29T08:30:28.245Z,84.10
2019-04-29T08:33:00.913Z,80.80
2019-04-29T08:35:32.698Z,81.40
2019-04-29T08:38:04.193Z,81.20
2019-04-29T08:40:34.932Z,80.80
2019-04-29T08:43:23.633Z,82.10
2019-04-29T08:46:01.378Z,83.20
2019-04-29T08:48:32.100Z,80.20
2019-04-29T08:51:02.832Z,82.00
2019-04-29T08:53:34.047Z,69.30
2019-04-29T08:56:05.620Z,68.70
2019-04-29T08:58:56.236Z,64.40
2019-04-29T09:01:29.287Z,66.30
2019-04-29T09:03:59.479Z,70.50
2019-04-29T09:06:32.556Z,67.80
2019-04-29T09:09:04.932Z,63.20
2019-04-29T09:11:35.237Z,66.00
2019-04-29T09:14:06.011Z,66.80
2019-04-29T09:16:36.790Z,67.60
2019-04-29T09:19:07.516Z,67.60
2019-04-29T09:21:39.763Z,68.80
2019-04-29T09:24:10.520Z,68.70
2019-04-29T09:26:48.837Z,67.90
2019-04-29T09:29:35.492Z,66.90
2019-04-29T09:32:07.111Z,70.30
2019-04-29T09:34:37.930Z,64.80
2019-04-29T09:37:08.710Z,67.30
2019-04-29T09:39:43.679Z,65.80
2019-04-29T09:42:45.543Z,66.90
2019-04-29T09:45:27.567Z,65.60
2019-04-29T09:47:58.314Z,65.80
2019-04-29T09:50:29.110Z,60.70
2019-04-29T09:52:59.897Z,60.40
2019-04-29T09:55:30.702Z,59.60
2019-04-29T09:58:01.443Z,58.80
2019-04-29T10:00:42.508Z,57.90
2019-04-29T10:03:47.427Z,57.30
2019-04-29T10:06:21.640Z,56.70
2019-04-29T10:08:52.453Z,57.30
2019-04-29T10:11:23.226Z,57.20
2019-04-29T10:13:53.968Z,57.90
2019-04-29T10:16:42.518Z,53.70
2019-04-29T10:19:23.837Z,52.90
2019-04-29T10:21:54.583Z,55.30
2019-04-29T10:24:25.319Z,54.00
2019-04-29T10:26:56.196Z,52.00
2019-04-29T10:29:28.782Z,52.70
2019-04-29T10:32:02.435Z,51.80
2019-04-29T10:34:33.078Z,52.90
2019-04-29T10:37:04.085Z,51.60
2019-04-29T10:40:10.628Z,54.90
2019-04-29T10:42:38.740Z,51.80
2019-04-29T10:45:19.061Z,52.50
2019-04-29T10:48:21.206Z,50.50
2019-04-29T10:50:54.048Z,51.70
2019-04-29T10:53:24.838Z,52.40
2019-04-29T10:55:55.694Z,50.60
2019-04-29T10:58:31.211Z,51.60
2019-04-29T11:02:09.345Z,52.00
2019-04-29T11:04:38.116Z,53.70
2019-04-29T11:07:37.193Z,54.80
2019-04-29T11:10:31.475Z,55.20
2019-04-29T11:13:02.310Z,56.70
2019-04-29T11:15:35.890Z,56.30
2019-04-29T11:18:07.255Z,57.20
2019-04-29T11:20:38.002Z,56.20
2019-04-29T11:23:26.481Z,54.50
2019-04-29T11:26:05.114Z,55.50
2019-04-29T11:28:37.766Z,55.70
2019-04-29T11:31:09.740Z,54.70
2019-04-29T11:33:50.851Z,54.10
2019-04-29T11:36:23.774Z,53.90
2019-04-29T11:38:54.625Z,55.60
2019-04-29T11:41:28.012Z,54.40
2019-04-29T11:43:58.868Z,54.40
2019-04-29T11:46:30.605Z,53.90
2019-04-29T11:49:02.971Z,52.80
2019-04-29T11:51:49.410Z,53.30
2019-04-29T11:54:12.382Z,53.80
2019-04-29T11:56:42.151Z,52.60
2019-04-29T11:59:24.579Z,52.70
2019-04-29T12:02:13.522Z,53.30
2019-04-29T12:04:53.890Z,52.60
2019-04-29T12:07:32.104Z,49.40
2019-04-29T12:09:57.073Z,47.20
2019-04-29T12:12:27.842Z,46.60
2019-04-29T12:15:20.324Z,46.30
2019-04-29T12:18:10.023Z,45.40
2019-04-29T12:20:58.664Z,44.80
2019-04-29T12:23:29.510Z,45.30
2019-04-29T12:26:03.085Z,46.40
2019-04-29T12:28:32.661Z,46.10
2019-04-29T12:31:10.253Z,45.00
2019-04-29T12:33:50.249Z,43.80
2019-04-29T12:36:21.371Z,44.00
2019-04-29T12:39:42.781Z,45.80
2019-04-29T12:42:35.770Z,46.40
2019-04-29T12:45:23.806Z,50.20
2019-04-29T12:47:54.526Z,50.70
2019-04-29T12:50:25.399Z,50.80
2019-04-29T12:52:56.155Z,49.40
2019-04-29T12:55:47.129Z,48.40
2019-04-29T12:58:06.530Z,48.90
2019-04-29T13:00:47.475Z,50.90
2019-04-29T13:03:39.940Z,47.30
2019-04-29T13:06:23.929Z,48.50
2019-04-29T13:08:57.047Z,47.80
2019-04-29T13:11:37.617Z,48.50
2019-04-29T13:14:01.786Z,49.10
2019-04-29T13:17:13.645Z,49.70
2019-04-29T13:19:41.840Z,51.20
2019-04-29T13:22:15.497Z,48.90
2019-04-29T13:24:45.020Z,49.40
2019-04-29T13:27:16.623Z,50.40
2019-04-29T13:29:48.260Z,49.90
2019-04-29T13:32:18.987Z,49.00
2019-04-29T13:34:51.062Z,49.60
2019-04-29T13:37:21.978Z,49.60
2019-04-29T13:39:55.605Z,51.50
2019-04-29T13:42:26.004Z,52.20
2019-04-29T13:45:07.769Z,53.80
2019-04-29T13:47:50.230Z,53.70
2019-04-29T13:50:43.320Z,54.50
2019-04-29T13:53:16.737Z,51.80
2019-04-29T13:55:49.429Z,53.10
2019-04-29T13:58:22.286Z,50.90
2019-04-29T14:01:02.202Z,51.80
2019-04-29T14:03:42.031Z,52.00
2019-04-29T14:06:14.444Z,54.00
2019-04-29T14:08:45.297Z,53.70
2019-04-29T14:11:16.115Z,53.60
2019-04-29T14:13:48.467Z,53.50
2019-04-29T14:16:19.498Z,53.50
2019-04-29T14:18:50.515Z,53.80
2019-04-29T14:21:21.343Z,53.80
2019-04-29T14:23:52.311Z,54.10
2019-04-29T14:26:23.069Z,53.20
2019-04-29T14:28:53.787Z,52.40
2019-04-29T14:31:24.639Z,52.30
2019-04-29T14:34:01.401Z,51.60
2019-04-29T14:36:32.266Z,50.80
2019-04-29T14:39:03.052Z,50.80
2019-04-29T14:41:35.357Z,51.00
2019-04-29T14:44:26.436Z,50.70
2019-04-29T14:47:16.371Z,52.30
2019-04-29T14:49:50.886Z,52.00
2019-04-29T14:52:21.693Z,50.00
2019-04-29T14:54:52.442Z,49.90
2019-04-29T14:57:23.255Z,49.80
2019-04-29T14:59:54.192Z,48.10
2019-04-29T15:02:26.561Z,49.80
2019-04-29T15:04:57.406Z,50.20
2019-04-29T15:07:36.034Z,52.30
2019-04-29T15:10:08.349Z,51.50
2019-04-29T15:13:06.732Z,50.10
2019-04-29T15:16:09.542Z,50.50
2019-04-29T15:18:51.515Z,50.60
2019-04-29T15:21:43.008Z,52.00
2019-04-29T15:24:08.986Z,52.30
2019-04-29T15:26:39.758Z,52.80
2019-04-29T15:29:10.515Z,51.90
2019-04-29T15:31:42.460Z,51.60
2019-04-29T15:34:14.562Z,51.80
2019-04-29T15:36:45.735Z,52.50
2019-04-29T15:39:16.772Z,53.30
2019-04-29T15:41:47.791Z,52.10
2019-04-29T15:44:20.700Z,52.60
2019-04-29T15:46:51.042Z,52.50
2019-04-29T15:49:24.680Z,52.70
2019-04-29T15:51:54.283Z,53.20
2019-04-29T15:54:26.151Z,52.80
2019-04-29T15:56:57.023Z,52.20
2019-04-29T15:59:27.842Z,52.60
2019-04-29T16:01:58.976Z,53.60
2019-04-29T16:04:35.727Z,54.50
2019-04-29T16:07:37.880Z,55.20
2019-04-29T16:10:26.671Z,56.30
2019-04-29T16:13:00.859Z,57.00
2019-04-29T16:15:31.694Z,59.40
2019-04-29T16:18:05.299Z,61.40
2019-04-29T16:20:34.941Z,61.90
2019-04-29T16:23:05.795Z,63.50
2019-04-29T16:25:40.643Z,64.00
2019-04-29T16:28:08.977Z,64.50
2019-04-29T16:30:39.738Z,65.80
2019-04-29T16:33:14.107Z,66.60
2019-04-29T16:35:42.973Z,67.90
2019-04-29T16:38:14.314Z,69.20
2019-04-29T16:40:48.659Z,70.10
2019-04-29T16:43:44.682Z,71.10
2019-04-29T16:46:23.428Z,72.50
2019-04-29T16:48:52.126Z,73.30
2019-04-29T16:51:22.923Z,74.00
2019-04-29T16:53:53.670Z,75.20
2019-04-29T16:56:24.445Z,74.50
2019-04-29T16:58:55.303Z,74.30
2019-04-29T17:01:26.031Z,74.10
2019-04-29T17:04:04.742Z,75.30
2019-04-29T17:06:29.233Z,75.60
2019-04-29T17:09:23.198Z,75.80
2019-04-29T17:11:56.146Z,76.80
2019-04-29T17:14:27.708Z,77.30
2019-04-29T17:16:58.383Z,79.10
2019-04-29T17:19:29.242Z,81.60
2019-04-29T17:22:24.189Z,82.90
2019-04-29T17:24:32.431Z,84.30
2019-04-29T17:27:14.741Z,85.50
2019-04-29T17:32:49.443Z,86.00
2019-04-29T17:35:17.510Z,86.20
2019-04-29T17:35:22.448Z,85.40
2019-04-29T17:37:53.724Z,85.60
2019-04-29T17:40:24.900Z,86.20
2019-04-29T17:43:05.126Z,86.40
2019-04-29T17:45:43.908Z,86.50
2019-04-29T17:48:31.191Z,87.30
2019-04-29T17:51:05.298Z,88.30
2019-04-29T17:53:40.432Z,89.30
2019-04-29T17:56:18.860Z,88.90
2019-04-29T17:58:56.441Z,88.80
2019-04-29T18:01:44.695Z,89.40
2019-04-29T18:04:29.608Z,90.00
2019-04-29T18:07:19.360Z,89.90
2019-04-29T18:10:01.103Z,90.50
2019-04-29T18:12:37.661Z,90.70
2019-04-29T18:15:06.004Z,91.20
2019-04-29T18:17:37.248Z,91.50
2019-04-29T18:20:33.041Z,91.60
2019-04-29T18:23:19.060Z,91.70
2019-04-29T18:25:54.867Z,91.90
2019-04-29T18:28:26.054Z,92.30
2019-04-29T18:30:57.912Z,93.90
2019-04-29T18:33:30.360Z,93.00
2019-04-29T18:36:04.600Z,92.50
2019-04-29T18:38:35.020Z,92.70
2019-04-29T18:41:05.837Z,92.30
2019-04-29T18:43:36.593Z,93.10
2019-04-29T18:46:12.501Z,92.90
2019-04-29T18:48:40.267Z,94.30
2019-04-29T18:51:11.036Z,94.00
2019-04-29T18:53:41.799Z,93.50
2019-04-29T18:56:12.618Z,94.60
2019-04-29T18:58:46.899Z,94.30
2019-04-29T19:01:16.930Z,94.30
2019-04-29T19:03:58.268Z,94.80
2019-04-29T19:06:29.123Z,94.30
2019-04-29T19:09:01.536Z,94.60
2019-04-29T19:11:32.863Z,94.80
2019-04-29T19:14:05.144Z,95.20
2019-04-29T19:16:39.255Z,95.50
2019-04-29T19:19:08.639Z,96.40
2019-04-29T19:21:39.423Z,97.90
2019-04-29T19:24:10.210Z,99.70
2019-04-29T19:26:41.016Z,99.90
2019-04-29T19:29:11.782Z,99.90
2019-04-29T19:31:48.275Z,99.90
2019-04-29T19:34:18.707Z,99.90
2019-04-29T19:36:50.637Z,99.90
2019-04-29T19:39:21.824Z,99.90
2019-04-29T19:41:52.146Z,99.90
2019-04-29T19:44:26.502Z,99.90
2019-04-29T19:46:57.021Z,99.90
2019-04-29T19:49:27.706Z,99.90
2019-04-29T19:51:58.502Z,99.90
2019-04-29T19:54:29.258Z,99.90
2019-04-29T19:57:03.462Z,99.90
2019-04-29T19:59:32.961Z,99.90
2019-04-29T20:02:06.753Z,99.90
2019-04-29T20:04:59.285Z,99.90
2019-04-29T20:07:29.550Z,99.90
2019-04-29T20:10:05.463Z,99.90
2019-04-29T20:12:33.603Z,99.90
2019-04-29T20:15:07.612Z,99.90
2019-04-29T20:18:11.734Z,99.90
2019-04-29T20:21:09.019Z,99.90
2019-04-29T20:23:39.459Z,99.90
2019-04-29T20:26:15.556Z,99.90
2019-04-29T20:28:42.181Z,99.90
2019-04-29T20:31:18.682Z,99.90
2019-04-29T20:33:47.014Z,99.90
2019-04-29T20:36:33.243Z,99.90
2019-04-29T20:38:50.404Z,99.90
2019-04-29T20:41:37.757Z,99.90
2019-04-29T20:43:55.641Z,99.90
2019-04-29T20:46:34.238Z,99.90
2019-04-29T20:48:59.772Z,99.90
2019-04-29T20:51:47.864Z,99.90
2019-04-29T20:54:13.519Z,99.90
2019-04-29T20:56:41.522Z,99.90
2019-04-29T20:59:12.922Z,99.90
2019-04-29T21:01:47.352Z,99.90
2019-04-29T21:04:31.066Z,99.90
2019-04-29T21:06:59.752Z,99.90
2019-04-29T21:09:27.561Z,99.90
2019-04-29T21:12:08.328Z,99.90
2019-04-29T21:14:43.375Z,99.90
2019-04-29T21:17:28.278Z,99.90
2019-04-29T21:19:46.523Z,99.90
2019-04-29T21:22:22.356Z,99.90
2019-04-29T21:24:53.775Z,99.90
2019-04-29T21:27:23.387Z,99.90
2019-04-29T21:29:55.444Z,99.90
2019-04-29T21:32:26.267Z,99.90
2019-04-29T21:35:05.820Z,99.90
2019-04-29T21:37:54.485Z,99.90
2019-04-29T21:40:35.071Z,99.90
2019-04-29T21:43:13.628Z,99.90
2019-04-29T21:45:44.988Z,99.90
2019-04-29T21:48:14.503Z,99.90
2019-04-29T21:50:45.299Z,99.90
2019-04-29T21:53:16.066Z,99.90
2019-04-29T21:55:46.892Z,99.90
2019-04-29T21:58:17.698Z,99.90
2019-04-29T22:00:48.665Z,99.90
2019-04-29T22:03:19.723Z,99.90
2019-04-29T22:05:53.553Z,99.90
2019-04-29T22:08:27.218Z,99.90
2019-04-29T22:10:58.287Z,99.90
2019-04-29T22:13:30.609Z,99.90
2019-04-29T22:16:01.324Z,99.90
2019-04-29T22:18:32.331Z,99.90
2019-04-29T22:21:06.548Z,99.90
2019-04-29T22:23:35.585Z,99.90
2019-04-29T22:26:06.380Z,99.90
2019-04-29T22:28:37.166Z,99.90
2019-04-29T22:31:07.953Z,99.90
2019-04-29T22:33:38.773Z,99.90
2019-04-29T22:36:10.233Z,99.90
2019-04-29T22:38:43.642Z,99.90
2019-04-29T22:41:20.299Z,99.90
2019-04-29T22:43:56.635Z,99.90
2019-04-29T22:46:27.487Z,99.90
2019-04-29T22:48:58.257Z,99.90
2019-04-29T22:51:29.007Z,99.90
2019-04-29T22:54:01.025Z,99.90
2019-04-29T22:56:31.830Z,99.90
2019-04-29T22:59:02.537Z,99.90
2019-04-29T23:01:35.824Z,99.90
2019-04-29T23:04:09.575Z,99.90
2019-04-29T23:06:39.864Z,99.90
2019-04-29T23:09:12.100Z,99.90
2019-04-29T23:11:42.801Z,99.90
2019-04-29T23:14:15.157Z,99.90
2019-04-29T23:16:47.457Z,99.90
2019-04-29T23:19:19.181Z,99.90
2019-04-29T23:22:15.605Z,99.90
2019-04-29T23:24:55.911Z,99.90
2019-04-29T23:27:26.658Z,99.90
2019-04-29T23:29:57.394Z,99.90
2019-04-29T23:32:28.252Z,99.90
2019-04-29T23:35:01.712Z,99.90
2019-04-29T23:37:31.413Z,99.90
2019-04-29T23:40:02.161Z,99.90
2019-04-29T23:42:32.926Z,99.90
2019-04-29T23:45:05.284Z,99.90
2019-04-29T23:47:36.200Z,99.90
2019-04-29T23:50:07.726Z,99.90
2019-04-29T23:52:38.473Z,99.90
2019-04-29T23:55:09.258Z,99.90
2019-04-29T23:58:02.861Z,99.90
